sensor_id;sensor_type;location;lat;lon;timestamp;pressure;altitude;pressure_sealevel;temperature;humidity
4858;BME280;58975;51.978;8.472;2023-02-13T00:00:47;102511.28;;;6.71;100.00
4858;BME280;58975;51.978;8.472;2023-02-13T00:05:43;102512.25;;;6.68;100.00
4858;BME280;58975;51.978;8.472;2023-02-13T00:10:40;102506.16;;;6.66;100.00
4858;BME280;58975;51.978;8.472;2023-02-13T00:15:36;102511.44;;;6.66;100.00
4858;BME280;58975;51.978;8.472;2023-02-13T00:20:33;102499.03;;;6.66;100.00
4858;BME280;58975;51.978;8.472;2023-02-13T00:25:29;102502.91;;;6.56;100.00
4858;BME280;58975;51.978;8.472;2023-02-13T00:30:25;102500.22;;;6.58;100.00
4858;BME280;58975;51.978;8.472;2023-02-13T00:35:22;102505.78;;;6.49;100.00
4858;BME280;58975;51.978;8.472;2023-02-13T00:40:18;102504.97;;;6.47;100.00
4858;BME280;58975;51.978;8.472;2023-02-13T00:45:15;102504.97;;;6.47;100.00
4858;BME280;58975;51.978;8.472;2023-02-13T00:50:11;102504.03;;;6.48;100.00
4858;BME280;58975;51.978;8.472;2023-02-13T00:55:07;102504.13;;;6.45;100.00
4858;BME280;58975;51.978;8.472;2023-02-13T01:00:04;102503.16;;;6.47;100.00
4858;BME280;58975;51.978;8.472;2023-02-13T01:05:01;102511.06;;;6.49;100.00
4858;BME280;58975;51.978;8.472;2023-02-13T01:09:58;102502.22;;;6.50;100.00
4858;BME280;58975;51.978;8.472;2023-02-13T01:14:54;102505.03;;;6.44;100.00
4858;BME280;58975;51.978;8.472;2023-02-13T01:19:51;102499.75;;;6.44;100.00
4858;BME280;58975;51.978;8.472;2023-02-13T01:24:47;102493.75;;;6.39;100.00
4858;BME280;58975;51.978;8.472;2023-02-13T01:29:44;102499.94;;;6.38;100.00
4858;BME280;58975;51.978;8.472;2023-02-13T01:34:40;102494.69;;;6.36;100.00
4858;BME280;58975;51.978;8.472;2023-02-13T01:39:36;102492.91;;;6.37;100.00
4858;BME280;58975;51.978;8.472;2023-02-13T01:44:56;102484.09;;;6.36;100.00
4858;BME280;58975;51.978;8.472;2023-02-13T01:50:07;102488.38;;;6.42;100.00
4858;BME280;58975;51.978;8.472;2023-02-13T01:55:06;102477.69;;;6.45;100.00
4858;BME280;58975;51.978;8.472;2023-02-13T02:00:09;102486.63;;;6.41;100.00
4858;BME280;58975;51.978;8.472;2023-02-13T02:05:07;102476.94;;;6.40;100.00
4858;BME280;58975;51.978;8.472;2023-02-13T02:10:08;102471.72;;;6.38;100.00
4858;BME280;58975;51.978;8.472;2023-02-13T02:15:06;102478.81;;;6.36;100.00
4858;BME280;58975;51.978;8.472;2023-02-13T02:25:22;102471.75;;;6.37;100.00
4858;BME280;58975;51.978;8.472;2023-02-13T02:41:08;102458.47;;;6.38;100.00
4858;BME280;58975;51.978;8.472;2023-02-13T02:56:38;102446.28;;;6.33;100.00
4858;BME280;58975;51.978;8.472;2023-02-13T03:01:36;102448.16;;;6.29;100.00
4858;BME280;58975;51.978;8.472;2023-02-13T03:06:55;102434.81;;;6.34;100.00
4858;BME280;58975;51.978;8.472;2023-02-13T03:11:55;102437.63;;;6.28;100.00
4858;BME280;58975;51.978;8.472;2023-02-13T03:17:12;102426.88;;;6.34;100.00
4858;BME280;58975;51.978;8.472;2023-02-13T03:27:57;102425.13;;;6.33;100.00
4858;BME280;58975;51.978;8.472;2023-02-13T03:39:00;102424.56;;;6.23;100.00
4858;BME280;58975;51.978;8.472;2023-02-13T03:49:41;102433.16;;;6.30;100.00
4858;BME280;58975;51.978;8.472;2023-02-13T03:55:10;102434.16;;;6.26;100.00
4858;BME280;58975;51.978;8.472;2023-02-13T04:00:32;102424.56;;;6.23;100.00
4858;BME280;58975;51.978;8.472;2023-02-13T04:05:31;102435.91;;;6.27;100.00
4858;BME280;58975;51.978;8.472;2023-02-13T04:10:33;102434.31;;;6.21;100.00
4858;BME280;58975;51.978;8.472;2023-02-13T04:15:42;102430.78;;;6.21;100.00
4858;BME280;58975;51.978;8.472;2023-02-13T04:20:41;102437.13;;;6.15;100.00
4858;BME280;58975;51.978;8.472;2023-02-13T04:25:40;102435.91;;;6.27;100.00
4858;BME280;58975;51.978;8.472;2023-02-13T04:30:39;102443.75;;;6.30;100.00
4858;BME280;58975;51.978;8.472;2023-02-13T04:35:35;102437.63;;;6.28;100.00
4858;BME280;58975;51.978;8.472;2023-02-13T04:40:33;102447.53;;;6.21;100.00
4858;BME280;58975;51.978;8.472;2023-02-13T04:45:29;102432.63;;;6.18;100.00
4858;BME280;58975;51.978;8.472;2023-02-13T04:50:25;102430.03;;;6.15;100.00
4858;BME280;58975;51.978;8.472;2023-02-13T04:55:23;102431.16;;;6.08;100.00
4858;BME280;58975;51.978;8.472;2023-02-13T05:00:24;102424.22;;;6.04;100.00
4858;BME280;58975;51.978;8.472;2023-02-13T05:05:21;102422.56;;;6.00;100.00
4858;BME280;58975;51.978;8.472;2023-02-13T05:10:18;102422.50;;;6.03;100.00
4858;BME280;58975;51.978;8.472;2023-02-13T05:15:14;102430.47;;;6.02;100.00
4858;BME280;58975;51.978;8.472;2023-02-13T05:20:12;102424.22;;;6.04;100.00
4858;BME280;58975;51.978;8.472;2023-02-13T05:25:09;102427.50;;;6.12;100.00
4858;BME280;58975;51.978;8.472;2023-02-13T05:30:06;102427.34;;;6.18;100.00
4858;BME280;58975;51.978;8.472;2023-02-13T05:35:03;102439.72;;;6.16;100.00
4858;BME280;58975;51.978;8.472;2023-02-13T05:40:00;102437.03;;;6.18;100.00
4858;BME280;58975;51.978;8.472;2023-02-13T05:44:56;102428.19;;;6.19;100.00
4858;BME280;58975;51.978;8.472;2023-02-13T05:49:52;102431.69;;;6.19;100.00
4858;BME280;58975;51.978;8.472;2023-02-13T05:54:49;102437.31;;;6.09;100.00
4858;BME280;58975;51.978;8.472;2023-02-13T05:59:45;102437.41;;;6.06;100.00
4858;BME280;58975;51.978;8.472;2023-02-13T06:04:42;102444.44;;;6.07;100.00
4858;BME280;58975;51.978;8.472;2023-02-13T06:09:38;102440.28;;;5.98;100.00
4858;BME280;58975;51.978;8.472;2023-02-13T06:14:34;102446.38;;;6.00;100.00
4858;BME280;58975;51.978;8.472;2023-02-13T06:19:31;102453.41;;;6.01;100.00
4858;BME280;58975;51.978;8.472;2023-02-13T06:24:27;102455.72;;;6.12;100.00
4858;BME280;58975;51.978;8.472;2023-02-13T06:29:23;102460.34;;;6.05;100.00
4858;BME280;58975;51.978;8.472;2023-02-13T06:34:20;102449.78;;;6.04;100.00
4858;BME280;58975;51.978;8.472;2023-02-13T06:39:16;102463.19;;;5.99;100.00
4858;BME280;58975;51.978;8.472;2023-02-13T06:44:12;102465.28;;;5.85;100.00
4858;BME280;58975;51.978;8.472;2023-02-13T06:49:09;102472.50;;;5.80;100.00
4858;BME280;58975;51.978;8.472;2023-02-13T06:54:05;102480.19;;;5.89;100.00
4858;BME280;58975;51.978;8.472;2023-02-13T06:59:02;102479.06;;;5.98;100.00
4858;BME280;58975;51.978;8.472;2023-02-13T07:03:58;102482.59;;;5.98;100.00
4858;BME280;58975;51.978;8.472;2023-02-13T07:08:54;102485.13;;;6.01;100.00
4858;BME280;58975;51.978;8.472;2023-02-13T07:13:51;102481.53;;;6.04;100.00
4858;BME280;58975;51.978;8.472;2023-02-13T07:18:48;102485.25;;;5.98;100.00
4858;BME280;58975;51.978;8.472;2023-02-13T07:23:44;102487.63;;;6.07;100.00
4858;BME280;58975;51.978;8.472;2023-02-13T07:28:41;102489.00;;;6.21;100.00
4858;BME280;58975;51.978;8.472;2023-02-13T07:33:37;102494.28;;;6.21;100.00
4858;BME280;58975;51.978;8.472;2023-02-13T07:38:34;102492.63;;;6.16;100.00
4858;BME280;58975;51.978;8.472;2023-02-13T07:43:30;102491.81;;;6.14;100.00
4858;BME280;58975;51.978;8.472;2023-02-13T07:48:27;102499.47;;;6.24;100.00
4858;BME280;58975;51.978;8.472;2023-02-13T07:53:23;102499.41;;;6.27;100.00
4858;BME280;58975;51.978;8.472;2023-02-13T07:58:20;102505.38;;;6.33;100.00
4858;BME280;58975;51.978;8.472;2023-02-13T08:03:16;102499.41;;;6.27;100.00
4858;BME280;58975;51.978;8.472;2023-02-13T08:08:12;102500.22;;;6.29;100.00
4858;BME280;58975;51.978;8.472;2023-02-13T08:13:09;102504.59;;;6.30;100.00
4858;BME280;58975;51.978;8.472;2023-02-13T08:18:08;102504.50;;;6.33;100.00
4858;BME280;58975;51.978;8.472;2023-02-13T08:23:06;102503.47;;;6.38;100.00
4858;BME280;58975;51.978;8.472;2023-02-13T08:28:03;102493.47;;;6.48;100.00
4858;BME280;58975;51.978;8.472;2023-02-13T08:33:00;102496.34;;;6.40;100.00
4858;BME280;58975;51.978;8.472;2023-02-13T08:38:00;102499.94;;;6.38;100.00
4858;BME280;58975;51.978;8.472;2023-02-13T08:43:04;102497.19;;;6.42;100.00
4858;BME280;58975;51.978;8.472;2023-02-13T08:48:01;102497.03;;;6.47;100.00
4858;BME280;58975;51.978;8.472;2023-02-13T08:52:59;102493.09;;;6.60;100.00
4858;BME280;58975;51.978;8.472;2023-02-13T08:58:01;102495.69;;;6.61;100.00
4858;BME280;58975;51.978;8.472;2023-02-13T09:03:02;102503.50;;;6.66;100.00
4858;BME280;58975;51.978;8.472;2023-02-13T09:08:00;102511.13;;;6.75;100.00
4858;BME280;58975;51.978;8.472;2023-02-13T09:12:58;102511.13;;;6.75;100.00
4858;BME280;58975;51.978;8.472;2023-02-13T09:17:54;102508.41;;;6.78;100.00
4858;BME280;58975;51.978;8.472;2023-02-13T09:22:51;102509.31;;;6.77;100.00
4858;BME280;58975;51.978;8.472;2023-02-13T09:27:49;102504.56;;;6.88;100.00
4858;BME280;58975;51.978;8.472;2023-02-13T09:32:46;102505.66;;;7.09;100.00
4858;BME280;58975;51.978;8.472;2023-02-13T09:37:42;102505.41;;;7.17;100.00
4858;BME280;58975;51.978;8.472;2023-02-13T09:42:41;102506.91;;;7.24;100.00
4858;BME280;58975;51.978;8.472;2023-02-13T09:47:40;102508.25;;;7.37;100.00
4858;BME280;58975;51.978;8.472;2023-02-13T09:52:38;102508.03;;;7.43;100.00
4858;BME280;58975;51.978;8.472;2023-02-13T09:57:40;102516.78;;;7.45;100.00
4858;BME280;58975;51.978;8.472;2023-02-13T10:13:01;102509.00;;;7.65;100.00
4858;BME280;58975;51.978;8.472;2023-02-13T10:18:05;102507.06;;;7.70;100.00
4858;BME280;58975;51.978;8.472;2023-02-13T10:23:18;102516.63;;;7.76;100.00
4858;BME280;58975;51.978;8.472;2023-02-13T10:28:27;102506.41;;;7.88;100.00
4858;BME280;58975;51.978;8.472;2023-02-13T10:38:32;102511.41;;;7.97;100.00
4858;BME280;58975;51.978;8.472;2023-02-13T10:43:37;102507.59;;;8.04;100.00
4858;BME280;58975;51.978;8.472;2023-02-13T10:48:49;102498.56;;;8.10;100.00
4858;BME280;58975;51.978;8.472;2023-02-13T10:59:16;102504.16;;;8.26;100.00
4858;BME280;58975;51.978;8.472;2023-02-13T11:04:19;102497.44;;;8.40;100.00
4858;BME280;58975;51.978;8.472;2023-02-13T11:09:15;102494.66;;;8.43;100.00
4858;BME280;58975;51.978;8.472;2023-02-13T11:14:19;102489.38;;;8.65;100.00
4858;BME280;58975;51.978;8.472;2023-02-13T11:19:25;102489.81;;;8.76;100.00
4858;BME280;58975;51.978;8.472;2023-02-13T11:24:25;102481.66;;;8.81;100.00
4858;BME280;58975;51.978;8.472;2023-02-13T11:29:23;102481.59;;;8.82;100.00
4858;BME280;58975;51.978;8.472;2023-02-13T11:39:19;102479.13;;;8.99;100.00
4858;BME280;58975;51.978;8.472;2023-02-13T11:44:24;102477.63;;;9.14;100.00
4858;BME280;58975;51.978;8.472;2023-02-13T11:49:35;102467.50;;;8.80;100.00
4858;BME280;58975;51.978;8.472;2023-02-13T11:54:44;102468.84;;;9.12;100.00
4858;BME280;58975;51.978;8.472;2023-02-13T11:59:43;102457.06;;;9.39;100.00
4858;BME280;58975;51.978;8.472;2023-02-13T12:04:40;102452.06;;;9.52;100.00
4858;BME280;58975;51.978;8.472;2023-02-13T12:09:38;102446.56;;;9.95;100.00
4858;BME280;58975;51.978;8.472;2023-02-13T12:14:42;102443.75;;;10.37;100.00
4858;BME280;58975;51.978;8.472;2023-02-13T12:19:42;102438.25;;;10.40;100.00
4858;BME280;58975;51.978;8.472;2023-02-13T12:29:52;102426.78;;;10.01;100.00
4858;BME280;58975;51.978;8.472;2023-02-13T12:35:08;102413.88;;;9.92;100.00
4858;BME280;58975;51.978;8.472;2023-02-13T13:07:15;102377.06;;;9.44;100.00
4858;BME280;58975;51.978;8.472;2023-02-13T13:12:21;102364.34;;;9.50;100.00
4858;BME280;58975;51.978;8.472;2023-02-13T13:17:32;102353.94;;;9.46;100.00
4858;BME280;58975;51.978;8.472;2023-02-13T13:22:41;102352.59;;;9.56;100.00
4858;BME280;58975;51.978;8.472;2023-02-13T13:27:47;102348.16;;;9.75;100.00
4858;BME280;58975;51.978;8.472;2023-02-13T13:32:47;102342.72;;;9.39;100.00
4858;BME280;58975;51.978;8.472;2023-02-13T13:38:18;102342.34;;;9.28;100.00
4858;BME280;58975;51.978;8.472;2023-02-13T13:43:22;102339.72;;;9.27;100.00
4858;BME280;58975;51.978;8.472;2023-02-13T13:53:30;102336.06;;;9.68;100.00
4858;BME280;58975;51.978;8.472;2023-02-13T13:58:43;102338.03;;;9.83;100.00
4858;BME280;58975;51.978;8.472;2023-02-13T14:03:42;102332.56;;;9.86;100.00
4858;BME280;58975;51.978;8.472;2023-02-13T14:13:38;102328.56;;;9.76;100.00
4858;BME280;58975;51.978;8.472;2023-02-13T14:18:35;102321.81;;;9.69;100.00
4858;BME280;58975;51.978;8.472;2023-02-13T14:23:42;102320.25;;;9.26;100.00
4858;BME280;58975;51.978;8.472;2023-02-13T14:33:45;102317.91;;;9.39;100.00
4858;BME280;58975;51.978;8.472;2023-02-13T14:38:41;102317.34;;;9.51;100.00
4858;BME280;58975;51.978;8.472;2023-02-13T14:43:48;102319.34;;;9.46;100.00
4858;BME280;58975;51.978;8.472;2023-02-13T14:54:02;102303.75;;;9.38;100.00
4858;BME280;58975;51.978;8.472;2023-02-13T14:59:09;102308.28;;;9.36;100.00
4858;BME280;58975;51.978;8.472;2023-02-13T15:04:14;102309.94;;;9.39;100.00
4858;BME280;58975;51.978;8.472;2023-02-13T15:09:20;102301.03;;;9.40;100.00
4858;BME280;58975;51.978;8.472;2023-02-13T15:14:34;102299.69;;;9.30;100.00
4858;BME280;58975;51.978;8.472;2023-02-13T15:19:34;102297.47;;;9.21;100.00
4858;BME280;58975;51.978;8.472;2023-02-13T15:24:52;102288.66;;;9.00;100.00
4858;BME280;58975;51.978;8.472;2023-02-13T15:30:00;102287.31;;;8.90;100.00
4858;BME280;58975;51.978;8.472;2023-02-13T15:34:57;102275.75;;;8.71;100.00
4858;BME280;58975;51.978;8.472;2023-02-13T15:39:54;102280.06;;;8.53;100.00
4858;BME280;58975;51.978;8.472;2023-02-13T15:44:54;102279.72;;;8.40;100.00
4858;BME280;58975;51.978;8.472;2023-02-13T15:49:53;102284.44;;;8.34;100.00
4858;BME280;58975;51.978;8.472;2023-02-13T15:54:54;102296.09;;;8.30;100.00
4858;BME280;58975;51.978;8.472;2023-02-13T15:59:52;102288.78;;;8.13;100.00
4858;BME280;58975;51.978;8.472;2023-02-13T16:04:52;102283.19;;;7.99;100.00
4858;BME280;58975;51.978;8.472;2023-02-13T16:09:49;102277.19;;;7.72;100.00
4858;BME280;58975;51.978;8.472;2023-02-13T16:19:59;102275.47;;;7.25;100.00
4858;BME280;58975;51.978;8.472;2023-02-13T16:25:19;102261.19;;;7.04;100.00
4858;BME280;58975;51.978;8.472;2023-02-13T16:35:30;102255.25;;;6.48;100.00
4858;BME280;58975;51.978;8.472;2023-02-13T16:40:40;102258.56;;;6.28;100.00
4858;BME280;58975;51.978;8.472;2023-02-13T16:45:37;102265.63;;;6.01;100.00
4858;BME280;58975;51.978;8.472;2023-02-13T16:50:33;102273.19;;;5.84;100.00
4858;BME280;58975;51.978;8.472;2023-02-13T16:55:30;102277.41;;;5.62;100.00
4858;BME280;58975;51.978;8.472;2023-02-13T17:00:26;102283.13;;;5.48;100.00
4858;BME280;58975;51.978;8.472;2023-02-13T17:05:26;102291.44;;;5.35;100.00
4858;BME280;58975;51.978;8.472;2023-02-13T17:10:33;102287.00;;;5.37;100.00
4858;BME280;58975;51.978;8.472;2023-02-13T17:15:31;102287.91;;;5.36;100.00
4858;BME280;58975;51.978;8.472;2023-02-13T17:20:30;102297.59;;;5.35;100.00
4858;BME280;58975;51.978;8.472;2023-02-13T17:25:28;102309.41;;;5.22;100.00
4858;BME280;58975;51.978;8.472;2023-02-13T17:30:28;102310.81;;;5.03;100.00
4858;BME280;58975;51.978;8.472;2023-02-13T17:35:25;102314.50;;;4.97;100.00
4858;BME280;58975;51.978;8.472;2023-02-13T17:40:23;102304.28;;;4.85;100.00
4858;BME280;58975;51.978;8.472;2023-02-13T17:45:23;102305.19;;;4.84;100.00
4858;BME280;58975;51.978;8.472;2023-02-13T17:50:20;102303.44;;;4.83;100.00
4858;BME280;58975;51.978;8.472;2023-02-13T17:55:21;102287.91;;;4.71;100.00
4858;BME280;58975;51.978;8.472;2023-02-13T18:00:20;102285.53;;;4.62;100.00
4858;BME280;58975;51.978;8.472;2023-02-13T18:05:17;102291.63;;;4.64;100.00
4858;BME280;58975;51.978;8.472;2023-02-13T18:10:15;102290.25;;;4.51;100.00
4858;BME280;58975;51.978;8.472;2023-02-13T18:15:12;102292.13;;;4.44;100.00
4858;BME280;58975;51.978;8.472;2023-02-13T18:20:14;102294.09;;;4.36;100.00
4858;BME280;58975;51.978;8.472;2023-02-13T18:25:12;102291.53;;;4.35;100.00
4858;BME280;58975;51.978;8.472;2023-02-13T18:30:11;102292.44;;;4.32;100.00
4858;BME280;58975;51.978;8.472;2023-02-13T18:35:08;102293.41;;;4.29;100.00
4858;BME280;58975;51.978;8.472;2023-02-13T18:40:06;102295.19;;;4.27;100.00
4858;BME280;58975;51.978;8.472;2023-02-13T18:45:03;102292.91;;;4.14;100.00
4858;BME280;58975;51.978;8.472;2023-02-13T18:50:00;102300.91;;;4.09;100.00
4858;BME280;58975;51.978;8.472;2023-02-13T18:54:56;102294.88;;;4.04;100.00
4858;BME280;58975;51.978;8.472;2023-02-13T18:59:53;102296.78;;;3.99;100.00
4858;BME280;58975;51.978;8.472;2023-02-13T19:04:49;102296.50;;;4.11;100.00
4858;BME280;58975;51.978;8.472;2023-02-13T19:09:45;102301.06;;;4.03;100.00
4858;BME280;58975;51.978;8.472;2023-02-13T19:14:42;102295.72;;;4.06;100.00
4858;BME280;58975;51.978;8.472;2023-02-13T19:19:39;102301.75;;;4.11;100.00
4858;BME280;58975;51.978;8.472;2023-02-13T19:24:35;102303.25;;;4.21;100.00
4858;BME280;58975;51.978;8.472;2023-02-13T19:29:32;102293.78;;;4.14;100.00
4858;BME280;58975;51.978;8.472;2023-02-13T19:34:28;102302.44;;;4.19;100.00
4858;BME280;58975;51.978;8.472;2023-02-13T19:39:24;102295.13;;;3.95;100.00
4858;BME280;58975;51.978;8.472;2023-02-13T19:44:21;102297.88;;;3.89;100.00
4858;BME280;58975;51.978;8.472;2023-02-13T19:49:17;102302.25;;;3.90;100.00
4858;BME280;58975;51.978;8.472;2023-02-13T19:54:16;102297.28;;;3.76;100.00
4858;BME280;58975;51.978;8.472;2023-02-13T19:59:12;102299.88;;;3.78;100.00
4858;BME280;58975;51.978;8.472;2023-02-13T20:04:10;102297.19;;;3.81;100.00
4858;BME280;58975;51.978;8.472;2023-02-13T20:09:09;102295.59;;;3.74;100.00
4858;BME280;58975;51.978;8.472;2023-02-13T20:14:09;102298.03;;;3.83;100.00
4858;BME280;58975;51.978;8.472;2023-02-13T20:19:10;102302.34;;;3.86;100.00
4858;BME280;58975;51.978;8.472;2023-02-13T20:24:09;102300.84;;;3.75;100.00
4858;BME280;58975;51.978;8.472;2023-02-13T20:29:07;102306.09;;;3.75;100.00
4858;BME280;58975;51.978;8.472;2023-02-13T20:34:05;102301.03;;;3.65;100.00
4858;BME280;58975;51.978;8.472;2023-02-13T20:39:05;102295.84;;;3.63;100.00
4858;BME280;58975;51.978;8.472;2023-02-13T20:44:05;102297.72;;;3.57;100.00
4858;BME280;58975;51.978;8.472;2023-02-13T20:49:02;102298.72;;;3.53;100.00
4858;BME280;58975;51.978;8.472;2023-02-13T20:53:59;102291.72;;;3.50;100.00
4858;BME280;58975;51.978;8.472;2023-02-13T20:58:57;102283.75;;;3.53;100.00
4858;BME280;58975;51.978;8.472;2023-02-13T21:03:54;102291.00;;;3.42;100.00
4858;BME280;58975;51.978;8.472;2023-02-13T21:08:51;102291.94;;;3.40;100.00
4858;BME280;58975;51.978;8.472;2023-02-13T21:13:48;102294.84;;;3.27;100.00
4858;BME280;58975;51.978;8.472;2023-02-13T21:18:50;102301.13;;;3.20;100.00
4858;BME280;58975;51.978;8.472;2023-02-13T21:23:48;102299.44;;;3.16;100.00
4858;BME280;58975;51.978;8.472;2023-02-13T21:28:47;102298.66;;;3.11;100.00
4858;BME280;58975;51.978;8.472;2023-02-13T21:33:44;102297.03;;;3.06;100.00
4858;BME280;58975;51.978;8.472;2023-02-13T21:38:41;102300.56;;;3.03;100.00
4858;BME280;58975;51.978;8.472;2023-02-13T21:43:38;102306.06;;;2.91;100.00
4858;BME280;58975;51.978;8.472;2023-02-13T21:48:35;102304.47;;;2.82;100.00
4858;BME280;58975;51.978;8.472;2023-02-13T21:53:32;102298.53;;;2.71;100.00
4858;BME280;58975;51.978;8.472;2023-02-13T21:58:32;102298.94;;;2.49;100.00
4858;BME280;58975;51.978;8.472;2023-02-13T22:03:28;102301.72;;;2.41;100.00
4858;BME280;58975;51.978;8.472;2023-02-13T22:08:25;102300.91;;;2.37;100.00
4858;BME280;58975;51.978;8.472;2023-02-13T22:13:22;102307.19;;;2.27;100.00
4858;BME280;58975;51.978;8.472;2023-02-13T22:18:18;102307.28;;;2.21;100.00
4858;BME280;58975;51.978;8.472;2023-02-13T22:23:15;102314.31;;;2.21;100.00
4858;BME280;58975;51.978;8.472;2023-02-13T22:28:11;102308.53;;;1.99;100.00
4858;BME280;58975;51.978;8.472;2023-02-13T22:33:08;102309.69;;;1.80;100.00
4858;BME280;58975;51.978;8.472;2023-02-13T22:38:05;102314.66;;;1.97;100.00
4858;BME280;58975;51.978;8.472;2023-02-13T22:43:02;102311.81;;;2.12;100.00
4858;BME280;58975;51.978;8.472;2023-02-13T22:47:59;102314.66;;;2.00;100.00
4858;BME280;58975;51.978;8.472;2023-02-13T22:52:55;102311.28;;;1.88;100.00
4858;BME280;58975;51.978;8.472;2023-02-13T22:57:52;102312.44;;;1.71;100.00
4858;BME280;58975;51.978;8.472;2023-02-13T23:02:54;102309.81;;;1.69;100.00
4858;BME280;58975;51.978;8.472;2023-02-13T23:07:50;102311.75;;;1.57;100.00
4858;BME280;58975;51.978;8.472;2023-02-13T23:12:46;102306.75;;;1.35;100.00
4858;BME280;58975;51.978;8.472;2023-02-13T23:17:45;102302.41;;;1.34;100.00
4858;BME280;58975;51.978;8.472;2023-02-13T23:23:00;102299.72;;;1.40;100.00
4858;BME280;58975;51.978;8.472;2023-02-13T23:27:59;102305.06;;;1.30;100.00
4858;BME280;58975;51.978;8.472;2023-02-13T23:32:57;102306.69;;;1.41;100.00
4858;BME280;58975;51.978;8.472;2023-02-13T23:37:54;102303.22;;;1.41;100.00
4858;BME280;58975;51.978;8.472;2023-02-13T23:42:50;102301.56;;;1.32;100.00
4858;BME280;58975;51.978;8.472;2023-02-13T23:47:47;102304.38;;;1.14;100.00
4858;BME280;58975;51.978;8.472;2023-02-13T23:52:44;102305.38;;;1.04;100.00
4858;BME280;58975;51.978;8.472;2023-02-13T23:57:40;102306.22;;;1.06;100.00
